Погода Ферма Новоена неделю

Смоленская область, Россия

22 - 28 мая
  • 22мая
    Сегодня
    +9°
    +24°
    Ясно и безоблачно
    ВремяПогодаТемператураВлажностьДавлениеВетер, м/сВероятность осадков
    00:00Ясно и безоблачно+12°C90 %749 мм0.0 м/с2 %
    03:00Ясно и безоблачно+10°C84 %749 мм0.2 м/с2 %
    06:00Ясно и безоблачно+11°C82 %750 мм0.1 м/с2 %
    09:00Ясно и безоблачно+18°C59 %750 мм1.6 м/с2 %
    12:00Ясно и безоблачно+22°C40 %751 мм2.4 м/с2 %
    15:00Ясно и безоблачно+24°C35 %750 мм2.5 м/с2 %
    18:00Ясно и безоблачно+23°C35 %750 мм2.4 м/с2 %
    21:00Ясно и безоблачно+16°C53 %751 мм1.3 м/с2 %
  • 23мая
    Четверг
    +6°
    +22°
    Ясно и безоблачно
    ВремяПогодаТемператураВлажностьДавлениеВетер, м/сВероятность осадков
    00:00Ясно и безоблачно+12°C55 %752 мм1.0 м/с2 %
    03:00Ясно и безоблачно+10°C59 %753 мм1.3 м/с2 %
    06:00Ясно и безоблачно+10°C60 %754 мм1.5 м/с2 %
    09:00Ясно и безоблачно+16°C47 %755 мм2.7 м/с2 %
    12:00Ясно и безоблачно+20°C35 %755 мм3.4 м/с2 %
    15:00Ясно и безоблачно+21°C34 %755 мм2.9 м/с2 %
    18:00Ясно и безоблачно+20°C38 %755 мм2.9 м/с2 %
    21:00Ясно и безоблачно+14°C50 %756 мм0.9 м/с2 %
  • 24мая
    Пятница
    +5°
    +21°
    Ясно и безоблачно
    ВремяПогодаТемператураВлажностьДавлениеВетер, м/сВероятность осадков
    00:00Ясно и безоблачно+9°C56 %757 мм0.6 м/с2 %
    03:00Ясно и безоблачно+8°C58 %757 мм0.9 м/с2 %
    06:00Ясно и безоблачно+8°C60 %758 мм0.4 м/с2 %
    09:00Ясно и безоблачно+15°C42 %759 мм1.7 м/с2 %
    12:00Ясно и безоблачно+19°C34 %759 мм2.6 м/с2 %
    15:00Ясно и безоблачно+20°C30 %758 мм2.4 м/с2 %
    18:00Ясно и безоблачно+20°C33 %758 мм2.0 м/с2 %
    21:00Ясно и безоблачно+13°C54 %757 мм0.8 м/с2 %
  • 25мая
    Суббота
    +9°
    +23°
    Практически безоблачно
    ВремяПогодаТемператураВлажностьДавлениеВетер, м/сВероятность осадков
    00:00Ясно и безоблачно+8°C64 %757 мм0.5 м/с2 %
    03:00Ясно и безоблачно+6°C73 %757 мм0.6 м/с2 %
    06:00Ясно и безоблачно+7°C73 %757 мм0.4 м/с2 %
    09:00Ясно и безоблачно+16°C53 %757 мм1.8 м/с2 %
    12:00Небольшая облачность+21°C37 %757 мм2.0 м/с2 %
    15:00Практически безоблачно+23°C35 %756 мм2.1 м/с2 %
    18:00Ясно и безоблачно+23°C37 %754 мм1.6 м/с2 %
    21:00Ясно и безоблачно+15°C57 %754 мм0.4 м/с2 %
  • 26мая
    Воскресенье
    +10°
    +25°
    Ясно и безоблачно
    ВремяПогодаТемператураВлажностьДавлениеВетер, м/сВероятность осадков
    00:00Ясно и безоблачно+11°C64 %754 мм0.0 м/с2 %
    03:00Ясно и безоблачно+9°C69 %754 мм0.2 м/с2 %
    06:00Ясно и безоблачно+9°C71 %754 мм0.0 м/с2 %
    09:00Облачно с прояснениями+18°C56 %754 мм0.9 м/с2 %
    12:00Облачно с прояснениями+23°C40 %754 мм1.2 м/с4 %
    15:00Ясно и безоблачно+25°C38 %754 мм1.0 м/с7 %
    18:00Ясно и безоблачно+25°C39 %753 мм0.8 м/с9 %
    21:00Ясно и безоблачно+18°C59 %753 мм0.3 м/с4 %
Мы используем cookies
Соглашаюсь